NCAR-RAP Real-Time Weather Data

Output produced by METARs form (21 May 2019  10:45 UTC)
found at http://weather.rap.ucar.edu/surface/
 
RJOO 211000Z 33014KT 9999 FEW030 SCT/// 21/08 Q1004 RMK 1CU030 A2965
RJOO 210900Z 35011KT 310V020 9999 FEW030 23/09 Q1003 RMK 1CU030 A2964
RJOO 210800Z 35012KT 9999 FEW030 BKN/// 24/09 Q1003 RMK 1CU030 A2962
RJOO 210717Z 33010KT 9999 FEW030 BKN/// 26/10 Q1002 RMK 1CU030 A2961
RJOO 210700Z 03008KT 350V070 9999 FEW030 BKN/// 26/09 Q1002 RMK 1CU030 A2961
RJOO 210600Z 33005KT 280V020 9999 FEW030 BKN/// 26/11 Q1002 RMK 1CU030 A2960
RJOO 210500Z VRB07KT 9999 FEW030 BKN/// 24/11 Q1003
RJOO 210400Z VRB06KT 9999 FEW030 BKN/// 25/11 Q1003
RJOO 210300Z 33009KT 290V020 9999 FEW030 SCT040 BKN/// 24/12 Q1003 RMK 1CU030 3CU040 A2964
RJOO 210200Z 33010KT 300V010 9999 FEW025 SCT040 BKN/// 24/14 Q1004 RMK 1CU025 3CU040 A2965
RJOO 210100Z 32009KT 280V350 9999 FEW020 SCT040 BKN/// 23/14 Q1004 RMK 1CU020 4CU040 A2965
RJOO 210000Z 33013KT 9999 FEW020 SCT030 BKN040 20/13 Q1004 RMK 1CU020 3CU030 5CU040 A2965
RJOO 202300Z 33009KT 9999 FEW010 SCT025 BKN035 19/15 Q1004 RMK 1CU010 3CU025 5CU035 A2965
RJOO 202200Z 33007KT 9999 FEW008 SCT020 BKN030 18/16 Q1004 RMK 1ST008 3CU020 5CU030 A2966
RJOO 202135Z 33010KT 9000 -SHRA FEW004 SCT008 BKN025 18/16 Q1003 RMK 1ST004 4ST008 5CU025 A2964
RJOO 202117Z 33010KT 8000 R32R/2000N R32L/P2000N -SHRA FEW004 BKN008 BKN010 18/18 Q1003 RMK 1ST004 5ST008 6CU010 A2964
RJOO 202100Z VRB02KT 9999 -SHRA FEW004 BKN007 BKN010 18/18 Q1003 RMK 1ST004 5ST007 6CU010 A2963
RJOO 202000Z 21004KT 160V270 8000 -SHRA FEW004 BKN007 BKN010 18/18 Q1002 RMK 1ST004 5ST007 6CU010 A2961
RJOO 201100Z 08009KT 9999 -RA FEW020 SCT060 BKN070 20/17 Q1005
RJOO 201000Z 08011KT 9999 -RA FEW020 BKN060 BKN080 20/16 Q1006 RMK 1CU020 5SC060 6AC080 A2971
RJOO 200900Z 07010KT 9999 -RA FEW020 SCT060 BKN080 20/16 Q1006 RMK 1CU020 3SC060 6AC080 A2971
RJOO 200800Z 07012KT 9999 -RA FEW020 SCT045 BKN070 22/15 Q1007 RMK 1CU020 4SC045 7AC070 A2974
RJOO 200700Z 10012KT 9999 -RA FEW025 BKN045 BKN070 23/15 Q1007 RMK 1CU025 5SC045 7AC070 A2976
RJOO 200622Z 10016G26KT 9999 -RA FEW030 BKN050 BKN070 24/14 Q1007 RMK 1CU030 5SC050 7AC070 A2974
RJOO 200600Z 10016KT 9999 FEW030 BKN050 BKN070 24/14 Q1007 RMK 1CU030 5SC050 7AC070 A2975
RJOO 200527Z 10016G26KT 9999 FEW030 BKN050 BKN070 24/14 Q1007 RMK 1CU030 5SC050 7AC070 A2975
RJOO 200500Z 10014KT 9999 -RA FEW030 BKN050 BKN070 24/14 Q1008 RMK 1CU030 5SC050 6AC070 A2977
RJOO 200400Z 10017KT 9999 FEW030 BKN050 BKN080 25/14 Q1008 RMK 1CU030 5SC050 6AC080 A2978
RJOO 200300Z 12010KT 090V160 9999 FEW030 BKN050 BKN080 25/14 Q1009 RMK 1CU030 5SC050 6AC080 A2981
RJOO 200200Z 11011KT 080V150 9999 FEW030 BKN050 BKN090 26/14 Q1009 RMK 1CU030 5SC050 6AC090 A2980
RJOO 200100Z 07011KT 9999 FEW025 BKN040 BKN/// 24/15 Q1010 RMK 1CU025 6CU040 A2984
RJOO 200000Z 07008KT 030V160 9999 FEW025 BKN040 BKN/// 24/16 Q1011 RMK 1CU025 5CU040 A2986
RJOO 192300Z 07012KT 9999 FEW025 SCT090 BKN/// 24/16 Q1012
RJOO 192200Z 07010KT 9999 FEW025 SCT050 BKN/// 21/15 Q1012 RMK 1CU025 3SC050 A2989
RJOO 192100Z 07012KT 9999 FEW025 SCT090 BKN/// 20/15 Q1012 RMK 1CU025 4AC090 A2990
RJOO 192000Z 07011KT 9999 FEW030 SCT080 BKN/// 20/14 Q1012 RMK 1CU030 3AC080 A2990
RJOO 191100Z 11014KT 9999 FEW030 BKN/// 22/13 Q1016 RMK 1CU030 A3001
RJOO 191000Z 10014KT 9999 FEW030 BKN/// 22/13 Q1016 RMK 1CU030 A3000
RJOO 190900Z 10014KT 9999 FEW030 BKN/// 23/12 Q1016 RMK 1CU030 A3001
RJOO 190800Z 11014KT 9999 FEW030 SCT050 BKN070 24/12 Q1016 RMK 1CU030 3SC050 5AC070 A3000
RJOO 190700Z 13011KT 100V180 9999 FEW030 BKN060 24/12 Q1016 RMK 1CU030 6SC060 A3001
RJOO 190600Z 12012KT 9999 FEW030 BKN060 BKN/// 25/12 Q1016 RMK 1CU030 5SC060 A3001
RJOO 190500Z 10014KT 9999 FEW030 BKN050 BKN/// 25/13 Q1016 RMK 1CU030 5SC050 A3001
RJOO 190428Z 11016G26KT 9999 FEW030 BKN050 BKN/// 25/13 Q1016 RMK 1CU030 5SC050 A3002
RJOO 190400Z 12011KT 070V160 9999 FEW030 BKN050 BKN/// 26/13 Q1016
RJOO 190300Z 13011KT 9999 FEW030 SCT050 BKN/// 27/13 Q1016 RMK 1CU030 4SC050 A3002
RJOO 190200Z 13011KT 100V180 9999 FEW030 SCT060 BKN/// 26/12 Q1017 RMK 1CU030 3SC060 A3004
RJOO 190100Z 10014KT 9999 FEW030 BKN050 25/12 Q1018 RMK 1CU030 6SC050 A3006
RJOO 190000Z 10011KT 9999 FEW030 BKN050 24/13 Q1018 RMK 1CU030 5SC050 A3008
RJOO 182300Z 06010KT 010V090 9999 FEW030 BKN/// 23/14 Q1019